EW9827 Weather Reports


Display with metric or nautical units.
time (UTC)temp
F
wind
direction
speed
MPH
gust
MPH
rain 1hr
in
rain 24hr
in
rain mn
in
humidity
%
barometer
mb
20171123090752 24 307 6.0 9.0 0.00 0.00 0.00 82 1023.2
20171123085253 24 320 4.0 8.0 0.00 0.00 0.00 82 1023.3
20171123083749 24 285 1.0 5.0 0.00 0.00 0.00 82 1023.4
20171123082253 24 307 0.0 4.0 0.00 0.00 0.00 82 1023.5
20171123080754 24 284 1.0 4.0 0.00 0.00 0.00 82 1023.5
20171123075248 24 320 2.0 7.0 0.00 0.00 0.00 82 1023.4
20171123073744 24 307 2.0 6.0 0.00 0.00 0.00 82 1023.4
20171123072257 24 311 3.0 7.0 0.00 0.00 0.00 82 1023.4
20171123070738 25 300 1.0 6.0 0.00 0.00 0.00 82 1023.4
20171123065238 25 284 1.0 5.0 0.00 0.00 0.00 82 1023.2
20171123063750 25 295 1.0 5.0 0.00 0.00 0.00 82 1023.2
20171123062235 25 292 2.0 7.0 0.00 0.00 0.00 81 1023.2
20171123060737 25 311 2.0 8.0 0.00 0.00 0.00 81 1023.2
20171123055232 25 262 2.0 8.0 0.00 0.00 0.00 80 1023.4
20171123053734 25 321 5.0 10.0 0.00 0.00 0.00 80 1023.5
20171123052227 25 277 3.0 8.0 0.00 0.00 0.00 80 1023.6
20171123050724 25 325 6.0 12.0 0.00 0.00 0.00 80 1023.5
20171123045222 25 314 3.0 8.0 0.00 0.00 0.00 80 1023.7
20171123043719 25 288 7.0 13.0 0.00 0.00 0.00 81 1023.7
20171123042217 25 307 4.0 8.0 0.00 0.00 0.00 81 1023.4
20171123040715 25 274 5.0 11.0 0.00 0.00 0.00 81 1023.2
20171123035214 25 285 4.0 10.0 0.00 0.00 0.00 82 1023.1
20171123034125 25 285 3.0 7.0 0.00 0.00 0.00 82 1023.0
20171123033120 25 297 4.0 9.0 0.00 0.00 0.00 81 1023.1
20171123030708 25 298 2.0 9.0 0.00 0.00 0.00 81 1023.1
20171123025207 25 286 5.0 10.0 0.00 0.00 0.00 80 1023.1
20171123023716 25 316 3.0 11.0 0.00 0.00 0.00 80 1023.4
20171123022211 25 289 5.0 9.0 0.00 0.00 0.00 80 1023.6
20171123020703 25 298 4.0 10.0 0.00 0.00 0.00 80 1023.7
20171123015208 25 302 2.0 8.0 0.00 0.00 0.00 79 1023.8
20171123013701 25 307 4.0 8.0 0.00 0.00 0.00 78 1024.1
20171123012201 25 316 4.0 8.0 0.00 0.00 0.00 78 1024.1
20171123010702 25 288 2.0 6.0 0.00 0.00 0.00 77 1024.2
20171123005201 25 292 3.0 9.0 0.00 0.00 0.00 76 1024.3
20171123003704 25 309 7.0 13.0 0.00 0.00 0.00 75 1024.3
20171123002206 25 327 7.0 18.0 0.00 0.00 0.00 77 1024.3
20171123000657 25 300 6.0 12.0 0.00 0.00 0.00 78 1024.3
20171122235201 25 283 7.0 17.0 0.00 0.00 0.00 78 1024.2
20171122233657 25 314 6.0 16.0 0.00 0.00 0.00 78 1024.1
20171122232210 26 284 8.0 17.0 0.00 0.00 0.00 77 1024.1
20171122230651 26 316 8.0 16.0 0.00 0.00 0.00 77 1023.9
20171122225150 26 302 8.0 17.0 0.00 0.00 0.00 80 1023.9
20171122223647 26 338 5.0 13.0 0.00 0.00 0.00 80 1023.5
20171122222200 26 326 5.0 13.0 0.00 0.00 0.00 79 1023.3
20171122220700 26 285 14.0 22.0 0.00 0.00 0.00 78 1023.2
20171122215145 26 293 8.0 17.0 0.00 0.00 0.00 80 1023.1
20171122213640 26 324 6.0 15.0 0.00 0.00 0.00 80 1023.0
20171122212135 26 281 7.0 15.0 0.00 0.00 0.00 80 1022.5
20171122210640 26 296 7.0 16.0 0.00 0.00 0.00 79 1022.3
20171122205137 26 308 8.0 17.0 0.00 0.00 0.00 79 1022.0
20171122203628 26 286 6.0 15.0 0.00 0.00 0.00 81 1021.8
20171122202127 27 290 5.0 15.0 0.00 0.00 0.00 81 1021.7
20171122200627 27 298 8.0 16.0 0.00 0.00 0.00 81 1021.5
20171122195136 27 304 7.0 16.0 0.00 0.00 0.00 82 1021.4
20171122193622 27 302 7.0 19.0 0.00 0.00 0.00 80 1021.4
20171122192121 27 290 9.0 16.0 0.00 0.00 0.00 80 1021.3
20171122190625 27 295 12.0 18.0 0.00 0.00 0.00 80 1021.3
20171122185115 27 280 9.0 18.0 0.00 0.00 0.00 82 1020.9
20171122183622 27 302 11.0 16.0 0.00 0.00 0.00 83 1020.8
20171122182112 27 300 8.0 16.0 0.00 0.00 0.00 86 1020.7
20171122180609 27 324 10.0 17.0 0.00 0.00 0.00 88 1020.6
20171122175114 28 288 8.0 14.0 0.00 0.00 0.00 89 1020.5
20171122173607 27 300 8.0 16.0 0.00 0.00 0.00 91 1020.4
20171122172104 28 328 9.0 14.0 0.00 0.00 0.00 90 1020.4
20171122170602 28 302 8.0 14.0 0.00 0.00 0.00 90 1020.4
20171122165101 28 311 8.0 21.0 0.00 0.00 0.00 90 1020.3
20171122163606 28 285 7.0 13.0 0.00 0.00 0.00 92 1020.3
20171122162056 29 287 9.0 15.0 0.00 0.00 0.00 92 1020.3
20171122160556 29 274 5.0 19.0 0.00 0.00 0.00 94 1020.0
20171122155053 29 262 5.0 13.0 0.00 0.00 0.00 95 1020.2
20171122153554 28 290 7.0 12.0 0.00 0.00 0.00 95 1020.0
20171122152049 28 330 7.0 15.0 0.00 0.00 0.00 95 1019.9
20171122150603 29 313 8.0 15.0 0.00 0.00 0.00 95 1019.9
20171122145043 29 304 7.0 12.0 0.00 0.00 0.00 96 1019.7
20171122143553 29 300 6.0 11.0 0.00 0.00 0.00 96 1019.7
20171122142101 29 276 5.0 12.0 0.00 0.00 0.00 96 1019.6
20171122140539 29 281 7.0 13.0 0.00 0.00 0.00 96 1019.5
20171122135034 30 298 6.0 11.0 0.00 0.00 0.00 96 1019.4
20171122133550 30 293 9.0 12.0 0.00 0.00 0.00 96 1019.0
20171122132029 30 303 7.0 11.0 0.00 0.00 0.00 96 1018.8
20171122130541 30 305 2.0 8.0 0.00 0.00 0.00 96 1018.6
20171122125037 30 310 4.0 9.0 0.00 0.00 0.00 96 1018.3
20171122123530 30 296 4.0 12.0 0.00 0.00 0.00 96 1018.0
20171122122026 31 331 5.0 15.0 0.00 0.00 0.00 96 1017.6
20171122120519 31 307 5.0 10.0 0.00 0.00 0.00 96 1017.3
20171122115031 31 312 7.0 14.0 0.00 0.00 0.00 96 1017.0
20171122113515 31 281 7.0 13.0 0.00 0.00 0.00 96 1016.7
20171122112015 31 295 7.0 11.0 0.00 0.00 0.00 96 1016.3
20171122110511 31 300 6.0 11.0 0.00 0.00 0.00 96 1016.1
20171122105009 31 283 5.0 11.0 0.00 0.00 0.00 95 1016.0
20171122103508 31 292 6.0 11.0 0.00 0.00 0.00 95 1015.8
20171122102007 31 300 5.0 9.0 0.00 0.00 0.00 95 1015.7
20171122100507 31 291 5.0 11.0 0.00 0.00 0.00 94 1015.7
20171122095003 32 290 9.0 14.0 0.00 0.00 0.00 94 1015.4
20171122093504 32 285 9.0 18.0 0.00 0.00 0.00 92 1015.2
20171122091956 34 290 9.0 18.0 0.00 0.00 0.00 91 1014.8